Time;durP1;ratioP1;P1;durP2;ratioP2;P2;SDS_P1;SDS_P2;PMS_P1;PMS_P2;Temp;Humidity;BMP_temperature;BMP_pressure;BME280_temperature;BME280_humidity;BME280_pressure;Samples;Min_cycle;Max_cycle;Signal;HPM_P1;HPM_P2
2023/03/03 00:00:38;;;;;;;36.95;15.77;;;3.40;99.90;;;;;;5072617;28;20275;-88
2023/03/03 00:03:07;;;;;;;42.20;16.73;;;3.40;99.90;;;;;;5071376;28;20147;-89
2023/03/03 00:05:33;;;;;;;40.28;17.52;;;3.40;99.90;;;;;;5072586;28;20028;-89
2023/03/03 00:08:00;;;;;;;107.03;19.25;;;3.40;99.90;;;;;;5073221;28;20040;-89
2023/03/03 00:10:26;;;;;;;47.60;17.00;;;3.40;99.90;;;;;;5071554;28;20094;-89
2023/03/03 00:12:52;;;;;;;38.03;16.05;;;3.90;99.90;;;;;;5073147;28;20055;-88
2023/03/03 00:15:21;;;;;;;41.70;17.70;;;3.30;99.90;;;;;;5072204;28;20033;-88
2023/03/03 00:17:47;;;;;;;41.35;17.60;;;3.30;99.90;;;;;;5072105;28;20475;-88
2023/03/03 00:20:36;;;;;;;46.78;17.60;;;3.30;99.90;;;;;;5071755;28;20037;-88
2023/03/03 00:23:20;;;;;;;36.25;15.32;;;3.30;99.90;;;;;;5070911;28;20041;-89
2023/03/03 00:25:50;;;;;;;42.65;16.63;;;3.30;99.90;;;;;;5072304;28;20049;-89
2023/03/03 00:28:27;;;;;;;33.80;15.35;;;3.30;99.90;;;;;;5070859;28;20036;-89
2023/03/03 00:30:54;;;;;;;60.65;16.67;;;3.30;99.90;;;;;;5075935;28;20539;-88
2023/03/03 00:33:34;;;;;;;48.47;17.92;;;3.40;99.90;;;;;;5068746;28;20056;-89
2023/03/03 00:36:14;;;;;;;42.92;16.92;;;3.40;99.90;;;;;;5070253;28;20438;-88
2023/03/03 00:38:40;;;;;;;44.38;16.00;;;3.40;99.90;;;;;;5069854;28;20041;-89
2023/03/03 00:41:25;;;;;;;39.33;16.30;;;3.40;99.90;;;;;;5074455;28;20186;-89
2023/03/03 00:43:52;;;;;;;38.58;14.65;;;3.40;99.90;;;;;;5071932;28;20040;-89
2023/03/03 00:46:20;;;;;;;50.22;15.93;;;3.40;99.90;;;;;;5071763;28;20037;-89
2023/03/03 00:48:47;;;;;;;41.50;15.43;;;3.40;99.90;;;;;;5070658;28;20044;-88
2023/03/03 00:51:29;;;;;;;46.85;17.13;;;3.40;99.90;;;;;;5071468;28;20028;-88
2023/03/03 00:53:56;;;;;;;39.28;15.75;;;3.40;99.90;;;;;;5071336;28;20051;-89
2023/03/03 00:56:22;;;;;;;42.35;15.60;;;3.40;99.90;;;;;;5069842;28;20426;-89
2023/03/03 00:58:49;;;;;;;53.15;16.40;;;3.30;99.90;;;;;;5070806;28;20109;-89
2023/03/03 01:01:16;;;;;;;61.30;17.42;;;3.80;99.90;;;;;;5070321;28;20098;-88
2023/03/03 01:03:42;;;;;;;49.83;16.58;;;3.30;99.90;;;;;;5071113;28;20487;-89
2023/03/03 01:06:08;;;;;;;76.55;17.80;;;3.30;99.90;;;;;;5072119;28;20044;-89
2023/03/03 01:08:34;;;;;;;52.28;15.52;;;3.30;99.90;;;;;;5069411;28;20087;-88
2023/03/03 01:11:06;;;;;;;55.50;17.05;;;3.30;99.90;;;;;;5070837;28;20036;-88
2023/03/03 01:13:34;;;;;;;55.55;16.65;;;3.30;99.90;;;;;;5053938;28;20478;-88
2023/03/03 01:16:01;;;;;;;64.40;17.00;;;3.60;99.90;;;;;;5063720;28;20044;-89
2023/03/03 01:18:27;;;;;;;47.45;16.67;;;3.30;99.90;;;;;;5057090;28;20041;-89
2023/03/03 01:20:53;;;;;;;66.38;17.17;;;3.30;99.90;;;;;;5080591;28;20047;-89
2023/03/03 01:23:18;;;;;;;45.45;15.77;;;3.30;99.90;;;;;;5070233;28;20048;-88
2023/03/03 01:25:44;;;;;;;62.17;16.88;;;3.30;99.90;;;;;;5070835;28;20130;-89
2023/03/03 01:28:10;;;;;;;60.00;17.02;;;3.30;99.90;;;;;;5071145;28;20049;-88
2023/03/03 01:30:36;;;;;;;70.20;17.85;;;3.30;99.90;;;;;;5070136;28;20372;-88
2023/03/03 01:33:01;;;;;;;53.40;15.88;;;3.30;99.90;;;;;;5069346;28;20048;-89
2023/03/03 01:35:28;;;;;;;55.78;16.65;;;3.30;99.90;;;;;;5068801;28;20067;-88
2023/03/03 01:37:54;;;;;;;63.75;18.98;;;3.70;99.90;;;;;;5069409;28;20040;-89
2023/03/03 01:40:23;;;;;;;87.75;17.77;;;3.30;99.90;;;;;;5053416;28;20466;-88
2023/03/03 01:42:51;;;;;;;85.90;16.65;;;3.30;99.90;;;;;;5088969;28;20044;-89
2023/03/03 01:45:26;;;;;;;58.28;17.05;;;3.30;99.90;;;;;;5092074;28;20039;-89
2023/03/03 01:47:57;;;;;;;87.68;18.05;;;3.30;99.90;;;;;;5090815;28;20047;-89
2023/03/03 01:50:37;;;;;;;93.38;17.50;;;3.30;99.90;;;;;;5089236;28;20040;-89
2023/03/03 01:53:05;;;;;;;50.80;16.98;;;3.30;99.90;;;;;;5069629;28;20044;-88
2023/03/03 01:55:38;;;;;;;43.78;17.13;;;3.30;99.90;;;;;;5069160;28;20036;-88
2023/03/03 01:58:09;;;;;;;101.18;17.30;;;3.30;99.90;;;;;;5074375;28;20582;-89
2023/03/03 02:00:39;;;;;;;33.10;13.55;;;3.30;99.90;;;;;;5070233;28;20044;-89
2023/03/03 02:03:05;;;;;;;50.35;12.25;;;3.30;99.90;;;;;;5070484;28;20051;-89
2023/03/03 02:05:32;;;;;;;36.22;12.50;;;3.40;99.90;;;;;;5069948;28;20032;-89
2023/03/03 02:07:58;;;;;;;44.20;12.20;;;3.40;99.90;;;;;;5069357;28;20130;-88
2023/03/03 02:10:23;;;;;;;58.70;12.05;;;3.40;99.90;;;;;;5069535;28;20517;-88
2023/03/03 02:12:55;;;;;;;155.63;16.25;;;3.40;99.90;;;;;;5072755;28;21443;-88
2023/03/03 02:15:27;;;;;;;79.78;13.85;;;3.40;99.90;;;;;;5076392;28;20066;-89
2023/03/03 02:17:56;;;;;;;76.60;13.35;;;3.40;99.90;;;;;;5059041;28;20044;-89
2023/03/03 02:20:33;;;;;;;93.53;13.27;;;3.40;99.90;;;;;;5070755;28;20471;-89
2023/03/03 02:23:12;;;;;;;61.25;12.23;;;3.40;99.90;;;;;;5086661;28;20044;-89
2023/03/03 02:25:41;;;;;;;31.05;10.27;;;3.40;99.90;;;;;;5062241;28;20033;-89
2023/03/03 02:28:06;;;;;;;62.72;12.00;;;3.40;99.90;;;;;;5075448;28;20111;-89
2023/03/03 02:30:37;;;;;;;67.15;12.75;;;3.40;99.90;;;;;;5080118;28;20040;-89
2023/03/03 02:33:03;;;;;;;42.60;11.68;;;3.40;99.90;;;;;;5052504;28;20044;-88
2023/03/03 02:35:32;;;;;;;30.50;10.70;;;3.40;99.90;;;;;;5068688;28;20044;-89
2023/03/03 02:38:06;;;;;;;31.27;10.10;;;3.40;99.90;;;;;;5070989;28;20037;-89
2023/03/03 02:40:36;;;;;;;44.70;11.85;;;3.40;99.90;;;;;;5073512;28;20032;-88
2023/03/03 02:43:04;;;;;;;58.30;12.77;;;3.40;99.90;;;;;;5072284;28;20045;-89
2023/03/03 02:45:29;;;;;;;58.08;11.43;;;3.40;99.90;;;;;;5070864;28;20040;-88
2023/03/03 02:47:55;;;;;;;43.80;10.57;;;4.70;99.90;;;;;;5074956;28;20468;-88
2023/03/03 02:50:21;;;;;;;86.32;12.32;;;3.40;99.90;;;;;;5070587;28;20060;-88
2023/03/03 02:52:46;;;;;;;38.83;10.23;;;3.40;99.90;;;;;;5069837;28;20506;-89
2023/03/03 02:55:12;;;;;;;68.32;13.02;;;3.30;99.90;;;;;;5070324;28;20414;-88
2023/03/03 02:57:37;;;;;;;57.45;11.65;;;3.30;99.90;;;;;;5069888;28;20038;-89
2023/03/03 03:00:05;;;;;;;50.72;11.30;;;3.30;99.90;;;;;;5068492;28;20043;-89
2023/03/03 03:02:30;;;;;;;57.10;10.85;;;3.30;99.90;;;;;;5069237;28;20089;-89
2023/03/03 03:04:56;;;;;;;53.28;11.18;;;3.30;99.90;;;;;;5068457;28;20040;-88
2023/03/03 03:07:21;;;;;;;31.23;10.20;;;3.30;99.90;;;;;;5069674;28;20458;-89
2023/03/03 03:09:48;;;;;;;130.85;15.48;;;3.30;99.90;;;;;;5068335;28;20055;-88
2023/03/03 03:12:15;;;;;;;68.53;12.20;;;3.20;99.90;;;;;;5070905;28;20538;-89
2023/03/03 03:14:40;;;;;;;47.78;11.15;;;3.20;99.90;;;;;;5072782;28;20285;-88
2023/03/03 03:17:06;;;;;;;78.15;15.48;;;3.20;99.90;;;;;;5073561;28;20044;-88
2023/03/03 03:19:31;;;;;;;80.97;13.60;;;3.20;99.90;;;;;;5090302;28;20036;-89
2023/03/03 03:21:57;;;;;;;61.50;11.00;;;3.20;99.90;;;;;;5073363;28;20034;-88
2023/03/03 03:24:23;;;;;;;84.45;12.48;;;3.20;99.90;;;;;;5071992;28;20127;-89
2023/03/03 03:26:48;;;;;;;86.43;11.60;;;3.30;99.90;;;;;;5072121;28;20055;-88
2023/03/03 03:29:14;;;;;;;94.15;12.18;;;3.30;99.90;;;;;;5072207;28;20131;-89
2023/03/03 03:31:39;;;;;;;44.83;10.30;;;3.30;99.90;;;;;;5072799;28;20036;-88
2023/03/03 03:34:05;;;;;;;132.85;12.50;;;3.30;99.90;;;;;;5071467;28;20054;-88
2023/03/03 03:36:30;;;;;;;72.53;11.18;;;3.20;99.90;;;;;;5083277;28;20079;-88
2023/03/03 03:38:56;;;;;;;80.93;10.55;;;3.30;99.90;;;;;;5071884;28;20047;-88
2023/03/03 03:41:22;;;;;;;44.28;9.35;;;3.20;99.90;;;;;;5073694;28;20044;-88
2023/03/03 03:43:47;;;;;;;116.15;12.63;;;3.20;99.90;;;;;;5071856;28;20533;-88
2023/03/03 03:46:13;;;;;;;57.80;9.95;;;3.20;99.90;;;;;;5073333;28;20036;-88
2023/03/03 03:48:39;;;;;;;66.85;10.15;;;3.20;99.90;;;;;;5071952;28;20079;-88
2023/03/03 03:51:04;;;;;;;125.65;10.93;;;3.20;99.90;;;;;;5073214;28;20045;-88
2023/03/03 03:53:30;;;;;;;55.13;8.45;;;3.20;99.90;;;;;;5072837;28;20130;-88
2023/03/03 03:55:56;;;;;;;82.30;9.57;;;3.20;99.90;;;;;;5071538;28;20090;-88
2023/03/03 03:58:21;;;;;;;60.72;9.38;;;2.50;99.90;;;;;;5069128;28;20076;-88
2023/03/03 04:00:47;;;;;;;68.25;9.27;;;3.20;99.90;;;;;;5071217;28;20483;-88
2023/03/03 04:03:13;;;;;;;84.22;10.00;;;3.10;99.90;;;;;;5075589;28;20044;-88
2023/03/03 04:05:39;;;;;;;62.63;8.77;;;3.10;99.90;;;;;;5081198;28;20029;-88
2023/03/03 04:08:05;;;;;;;100.65;10.90;;;3.10;99.90;;;;;;5071614;28;20043;-88
2023/03/03 04:10:30;;;;;;;65.28;8.43;;;3.10;99.90;;;;;;5072160;28;20079;-88
2023/03/03 04:12:56;;;;;;;57.30;8.43;;;3.10;99.90;;;;;;5068900;28;20040;-89
2023/03/03 04:15:22;;;;;;;48.22;8.55;;;3.10;99.90;;;;;;5071974;28;20041;-88
2023/03/03 04:17:47;;;;;;;45.33;7.50;;;3.00;99.90;;;;;;5071317;28;20539;-88
2023/03/03 04:20:14;;;;;;;72.80;9.25;;;3.10;99.90;;;;;;5070989;28;20111;-89
2023/03/03 04:22:41;;;;;;;51.55;9.50;;;3.00;99.90;;;;;;5072545;28;20036;-88
2023/03/03 04:25:07;;;;;;;90.78;11.27;;;3.00;99.90;;;;;;5072385;28;20083;-88
2023/03/03 04:27:35;;;;;;;72.88;9.85;;;3.00;99.90;;;;;;5072059;28;20468;-89
2023/03/03 04:30:02;;;;;;;90.28;10.07;;;3.00;99.90;;;;;;5070744;28;20230;-89
2023/03/03 04:32:27;;;;;;;72.20;9.63;;;3.00;99.90;;;;;;5071577;28;20070;-87
2023/03/03 04:34:53;;;;;;;76.10;10.73;;;3.00;99.90;;;;;;5072224;28;20032;-88
2023/03/03 04:37:19;;;;;;;80.15;10.75;;;3.00;99.90;;;;;;5071949;28;20044;-89
2023/03/03 04:39:45;;;;;;;57.88;8.90;;;3.00;99.90;;;;;;5071982;28;20033;-89
2023/03/03 04:42:11;;;;;;;139.73;12.88;;;2.90;99.90;;;;;;5070435;28;20457;-88
2023/03/03 04:44:36;;;;;;;34.47;7.55;;;2.90;99.90;;;;;;5071424;28;20039;-88
2023/03/03 04:47:02;;;;;;;99.28;11.98;;;2.80;99.90;;;;;;5072131;28;20032;-88
2023/03/03 04:49:28;;;;;;;61.35;10.23;;;2.80;99.90;;;;;;5070827;28;20086;-89
2023/03/03 04:51:53;;;;;;;115.55;10.52;;;2.80;99.90;;;;;;5071696;28;20047;-89
2023/03/03 04:54:19;;;;;;;101.45;10.57;;;2.80;99.90;;;;;;5070714;28;20046;-88
2023/03/03 04:56:44;;;;;;;75.43;9.40;;;2.80;99.90;;;;;;5082753;28;20484;-88
2023/03/03 04:59:10;;;;;;;97.55;9.57;;;2.80;99.90;;;;;;5071976;28;20068;-88
2023/03/03 05:01:36;;;;;;;82.95;9.85;;;2.80;99.90;;;;;;5061175;28;20029;-88
2023/03/03 05:04:02;;;;;;;129.20;9.95;;;2.80;99.90;;;;;;5070183;28;20029;-88
2023/03/03 05:06:27;;;;;;;76.35;7.93;;;2.70;99.90;;;;;;5077594;28;20052;-88
2023/03/03 05:08:53;;;;;;;69.72;7.47;;;2.70;99.90;;;;;;5071285;28;20065;-88
2023/03/03 05:11:19;;;;;;;52.50;7.47;;;2.60;99.90;;;;;;5070015;28;20052;-88
2023/03/03 05:13:45;;;;;;;51.60;6.45;;;3.50;99.90;;;;;;5069722;28;20127;-88
2023/03/03 05:16:10;;;;;;;60.15;6.72;;;2.60;99.90;;;;;;5071045;28;20040;-88
2023/03/03 05:18:36;;;;;;;88.93;7.93;;;2.50;99.90;;;;;;5070560;28;20068;-88
2023/03/03 05:21:02;;;;;;;61.97;11.05;;;2.50;99.90;;;;;;5069673;28;20499;-88
2023/03/03 05:23:28;;;;;;;90.18;7.97;;;2.40;99.90;;;;;;5075508;28;20048;-88
2023/03/03 05:25:53;;;;;;;78.05;7.72;;;2.40;99.90;;;;;;5069509;28;20405;-88
2023/03/03 05:28:19;;;;;;;22.85;6.22;;;2.40;99.90;;;;;;5069528;28;20028;-88
2023/03/03 05:30:45;;;;;;;81.47;7.85;;;2.40;99.90;;;;;;5070465;28;20115;-88
2023/03/03 05:33:15;;;;;;;153.45;9.30;;;2.40;99.90;;;;;;5069617;28;20041;-88
2023/03/03 05:35:41;;;;;;;124.47;9.20;;;2.40;99.90;;;;;;5070611;28;20051;-89
2023/03/03 05:38:06;;;;;;;106.40;8.13;;;2.30;99.90;;;;;;5070670;28;20530;-88
2023/03/03 05:40:32;;;;;;;89.10;7.75;;;2.20;99.90;;;;;;5069680;28;20120;-88
2023/03/03 05:42:57;;;;;;;68.72;7.05;;;2.10;99.90;;;;;;5069025;28;20040;-88
2023/03/03 05:45:23;;;;;;;85.90;7.40;;;2.00;99.90;;;;;;5070766;28;20613;-88
2023/03/03 05:47:50;;;;;;;61.88;6.47;;;2.00;99.90;;;;;;5069488;28;20044;-88
2023/03/03 05:50:17;;;;;;;31.58;6.03;;;2.00;99.90;;;;;;5069764;28;20040;-88
2023/03/03 05:52:43;;;;;;;61.72;6.40;;;2.00;99.90;;;;;;5069136;28;20137;-87
2023/03/03 05:55:10;;;;;;;57.92;6.15;;;2.10;99.90;;;;;;5069412;28;20060;-88
2023/03/03 05:57:35;;;;;;;51.67;6.28;;;2.00;99.90;;;;;;5086885;28;20039;-88
2023/03/03 06:00:03;;;;;;;101.40;8.00;;;2.00;99.90;;;;;;5072182;28;20033;-88
2023/03/03 06:02:28;;;;;;;64.43;6.32;;;2.00;99.90;;;;;;5070300;28;20034;-88
2023/03/03 06:04:54;;;;;;;41.20;6.25;;;1.90;99.90;;;;;;5069933;28;20434;-88
2023/03/03 06:07:19;;;;;;;30.90;5.35;;;1.80;99.90;;;;;;5070204;28;20106;-88
2023/03/03 06:09:45;;;;;;;94.47;6.80;;;1.80;99.90;;;;;;5069679;28;20559;-88
2023/03/03 06:12:11;;;;;;;66.93;7.35;;;1.70;99.90;;;;;;5069334;28;20051;-89
2023/03/03 06:14:36;;;;;;;49.25;5.72;;;1.70;99.90;;;;;;5062314;28;20059;-88
2023/03/03 06:17:02;;;;;;;101.45;7.63;;;1.70;99.90;;;;;;5069919;28;20039;-89
2023/03/03 06:19:27;;;;;;;75.35;6.82;;;1.70;99.90;;;;;;5069311;28;20398;-88
2023/03/03 06:21:53;;;;;;;81.90;6.75;;;1.70;99.90;;;;;;5069985;28;20032;-88
2023/03/03 06:24:19;;;;;;;45.78;6.78;;;1.60;99.90;;;;;;5068835;28;20134;-89
2023/03/03 06:26:44;;;;;;;50.55;6.55;;;1.50;99.90;;;;;;5052205;28;20482;-88
2023/03/03 06:29:10;;;;;;;27.20;5.60;;;1.50;99.90;;;;;;5052456;28;20491;-89
2023/03/03 06:31:36;;;;;;;76.95;6.85;;;1.50;99.90;;;;;;5067994;28;20040;-88
2023/03/03 06:34:02;;;;;;;28.58;5.97;;;1.50;99.90;;;;;;5069562;28;20119;-88
2023/03/03 06:36:27;;;;;;;18.95;5.20;;;1.50;99.90;;;;;;5069498;28;20040;-89
2023/03/03 06:38:53;;;;;;;21.67;5.65;;;1.50;99.90;;;;;;5068600;28;20036;-89
2023/03/03 06:41:18;;;;;;;43.60;7.40;;;1.60;99.90;;;;;;5081333;28;20529;-88
2023/03/03 06:43:45;;;;;;;20.05;5.95;;;1.50;99.90;;;;;;5069610;28;20119;-88
2023/03/03 06:46:10;;;;;;;41.22;6.50;;;1.50;99.90;;;;;;5069386;28;20091;-89
2023/03/03 06:48:36;;;;;;;17.92;5.90;;;1.50;99.90;;;;;;5068206;28;20079;-88
2023/03/03 06:51:17;;;;;;;45.75;8.05;;;2.00;99.90;;;;;;5069546;28;20547;-88
2023/03/03 06:53:43;;;;;;;31.17;6.75;;;1.50;99.90;;;;;;5069040;28;20074;-88
2023/03/03 06:56:09;;;;;;;29.33;6.47;;;1.40;99.90;;;;;;5069055;28;20071;-89
2023/03/03 06:58:35;;;;;;;21.35;6.13;;;1.40;99.90;;;;;;5055728;28;20093;-88
2023/03/03 07:01:01;;;;;;;37.28;6.65;;;1.40;99.90;;;;;;5071050;28;20041;-88
2023/03/03 07:03:33;;;;;;;44.00;6.28;;;1.40;99.90;;;;;;5068743;28;20116;-88
2023/03/03 07:05:59;;;;;;;31.88;5.82;;;1.40;99.90;;;;;;5068297;28;20411;-89
2023/03/03 07:08:30;;;;;;;37.67;7.57;;;1.40;99.90;;;;;;5068150;28;20111;-87
2023/03/03 07:11:01;;;;;;;46.25;6.47;;;1.40;99.90;;;;;;5067468;28;20123;-89
2023/03/03 07:13:28;;;;;;;33.25;6.20;;;1.40;99.90;;;;;;5068137;28;20048;-89
2023/03/03 07:15:57;;;;;;;18.42;4.88;;;1.50;99.90;;;;;;5068238;28;20052;-87
2023/03/03 07:18:49;;;;;;;25.45;5.30;;;1.50;99.90;;;;;;5067961;28;20107;-89
2023/03/03 07:21:35;;;;;;;31.23;5.63;;;1.60;99.90;;;;;;5069341;28;20487;-89
2023/03/03 07:24:18;;;;;;;24.35;5.32;;;1.60;99.90;;;;;;5067741;28;20033;-88
2023/03/03 07:26:44;;;;;;;23.50;5.28;;;1.60;99.90;;;;;;5069202;28;20396;-88
2023/03/03 07:29:23;;;;;;;15.25;4.97;;;1.60;99.90;;;;;;5067800;28;20127;-89
2023/03/03 07:31:49;;;;;;;11.43;4.65;;;1.50;99.90;;;;;;5067484;28;20036;-88
2023/03/03 07:34:42;;;;;;;12.45;5.55;;;1.50;99.90;;;;;;5070241;28;20036;-89
2023/03/03 07:37:29;;;;;;;24.15;5.63;;;1.50;99.90;;;;;;5067762;28;20036;-89
2023/03/03 07:39:55;;;;;;;27.70;6.70;;;1.50;99.90;;;;;;5067360;28;20040;-89
2023/03/03 07:42:34;;;;;;;25.80;6.28;;;1.50;99.90;;;;;;5073109;28;20032;-88
2023/03/03 07:45:01;;;;;;;50.58;8.02;;;1.50;99.90;;;;;;5071552;28;20041;-89
2023/03/03 07:47:30;;;;;;;18.15;8.73;;;1.50;99.90;;;;;;5067928;28;20490;-89
2023/03/03 07:49:59;;;;;;;17.95;10.75;;;1.50;99.90;;;;;;5068907;28;20064;-89
2023/03/03 07:52:38;;;;;;;22.45;8.30;;;1.50;99.90;;;;;;5075454;28;20048;-89
2023/03/03 07:55:38;;;;;;;18.05;6.97;;;1.60;99.90;;;;;;5067806;28;20037;-89
2023/03/03 07:58:16;;;;;;;21.92;5.82;;;1.60;99.90;;;;;;5051869;28;20044;-89
2023/03/03 08:00:44;;;;;;;15.68;7.60;;;1.70;99.90;;;;;;5082563;28;20062;-90
2023/03/03 08:03:19;;;;;;;29.67;6.03;;;1.70;99.90;;;;;;5070247;28;20071;-90
2023/03/03 08:05:50;;;;;;;17.70;5.22;;;1.80;99.90;;;;;;5069610;28;20070;-89
2023/03/03 08:08:35;;;;;;;31.00;6.20;;;1.80;99.90;;;;;;5070890;28;20123;-89
2023/03/03 08:11:02;;;;;;;22.23;6.70;;;1.90;99.90;;;;;;5079588;28;20515;-88
2023/03/03 08:13:34;;;;;;;17.60;5.30;;;2.00;99.90;;;;;;5070786;28;20137;-89
2023/03/03 08:16:24;;;;;;;31.48;7.40;;;2.10;99.90;;;;;;5072372;28;20044;-88
2023/03/03 08:18:52;;;;;;;11.68;4.97;;;2.20;99.90;;;;;;5076677;28;20040;-89
2023/03/03 08:21:22;;;;;;;8.55;4.65;;;2.30;99.90;;;;;;5054957;28;20067;-88
2023/03/03 08:23:50;;;;;;;9.73;4.80;;;2.40;99.90;;;;;;5072316;28;20041;-89
2023/03/03 08:26:17;;;;;;;12.27;5.47;;;2.50;99.90;;;;;;5072229;28;20507;-89
2023/03/03 08:28:42;;;;;;;7.25;4.50;;;2.60;99.90;;;;;;5054452;28;20051;-89
2023/03/03 08:31:08;;;;;;;8.63;4.82;;;3.20;99.90;;;;;;5064942;28;20032;-89
2023/03/03 08:33:33;;;;;;;8.48;4.40;;;2.60;99.90;;;;;;5059011;28;20048;-88
2023/03/03 08:35:59;;;;;;;8.73;4.72;;;2.60;99.90;;;;;;5071716;28;20486;-88
2023/03/03 08:38:25;;;;;;;8.13;5.05;;;2.60;99.90;;;;;;5070654;28;20032;-89
2023/03/03 08:40:51;;;;;;;8.13;5.25;;;2.60;99.90;;;;;;5071047;28;20127;-88
2023/03/03 08:43:20;;;;;;;9.93;5.68;;;2.60;99.90;;;;;;5077674;28;20208;-89
2023/03/03 08:45:48;;;;;;;8.43;4.82;;;3.60;99.90;;;;;;5068537;28;20047;-89
2023/03/03 08:48:14;;;;;;;8.55;5.68;;;2.60;99.90;;;;;;5068438;28;20040;-89
2023/03/03 08:50:40;;;;;;;10.43;5.85;;;2.70;99.90;;;;;;5067947;28;20055;-89
2023/03/03 08:53:07;;;;;;;10.38;5.75;;;2.70;99.90;;;;;;5070220;28;20098;-89
2023/03/03 08:55:33;;;;;;;10.70;5.20;;;2.70;99.90;;;;;;5070031;28;20047;-89
2023/03/03 08:57:58;;;;;;;9.70;5.63;;;2.70;99.90;;;;;;5069897;28;20111;-89
2023/03/03 09:00:25;;;;;;;9.35;5.57;;;2.80;99.90;;;;;;5071280;28;20429;-89
2023/03/03 09:02:52;;;;;;;9.48;6.00;;;2.80;99.90;;;;;;5071058;28;20037;-89
2023/03/03 09:05:19;;;;;;;9.63;6.03;;;2.90;99.90;;;;;;5069971;28;20036;-89
2023/03/03 09:07:46;;;;;;;9.23;6.15;;;2.90;99.90;;;;;;5078785;28;20044;-89
2023/03/03 09:10:14;;;;;;;10.48;6.25;;;2.90;99.90;;;;;;5069582;28;20079;-89
2023/03/03 09:12:48;;;;;;;14.27;6.43;;;2.90;99.90;;;;;;5071640;28;20033;-89
2023/03/03 09:15:25;;;;;;;9.00;5.82;;;3.00;99.90;;;;;;5078841;28;20143;-89
2023/03/03 09:17:52;;;;;;;10.75;5.97;;;3.00;99.90;;;;;;5071294;28;20157;-88
2023/03/03 09:20:26;;;;;;;12.35;7.05;;;3.00;99.90;;;;;;5069655;28;20403;-89
2023/03/03 09:22:52;;;;;;;9.63;5.72;;;3.10;99.90;;;;;;5068950;28;20045;-89
2023/03/03 09:25:33;;;;;;;7.10;4.38;;;3.10;99.90;;;;;;5069292;28;20031;-89
2023/03/03 09:28:01;;;;;;;8.82;5.97;;;3.10;99.90;;;;;;5067851;28;20059;-89
2023/03/03 09:30:36;;;;;;;9.98;6.07;;;3.10;99.90;;;;;;5069225;28;20083;-89
2023/03/03 09:33:16;;;;;;;10.38;6.38;;;3.10;99.90;;;;;;5068191;28;20174;-89
2023/03/03 09:35:41;;;;;;;10.82;7.10;;;3.30;99.90;;;;;;5068809;28;20070;-90
2023/03/03 09:38:29;;;;;;;10.30;5.78;;;3.20;99.90;;;;;;5069705;28;20044;-89
2023/03/03 09:41:12;;;;;;;12.25;7.03;;;3.20;99.90;;;;;;5069829;28;20116;-89
2023/03/03 09:44:20;;;;;;;11.18;6.90;;;3.20;99.90;;;;;;5070141;28;20127;-88
2023/03/03 09:46:48;;;;;;;11.20;6.95;;;3.30;99.90;;;;;;5085057;28;20051;-89
2023/03/03 09:49:20;;;;;;;12.75;7.10;;;3.30;99.90;;;;;;5068747;28;20111;-89
2023/03/03 09:52:01;;;;;;;11.88;7.75;;;3.40;99.90;;;;;;5069154;28;20044;-90
2023/03/03 09:54:41;;;;;;;11.73;8.05;;;3.40;99.90;;;;;;5068861;28;20079;-89
2023/03/03 09:57:33;;;;;;;11.98;7.55;;;3.50;99.90;;;;;;5069124;28;20051;-89
2023/03/03 10:00:18;;;;;;;13.23;6.40;;;3.60;99.90;;;;;;5080561;28;20048;-89
2023/03/03 10:03:35;;;;;;;10.23;6.60;;;3.70;99.90;;;;;;5069885;28;20070;-90
2023/03/03 10:06:15;;;;;;;10.07;5.80;;;3.80;99.90;;;;;;5013322;28;20052;-89
2023/03/03 10:08:59;;;;;;;11.25;6.68;;;3.80;99.90;;;;;;5000621;28;20392;-89
2023/03/03 10:11:36;;;;;;;10.68;6.05;;;3.90;99.90;;;;;;5000078;28;20054;-90
2023/03/03 10:14:17;;;;;;;13.77;6.63;;;4.00;99.90;;;;;;5020884;28;20049;-89
2023/03/03 10:16:53;;;;;;;7.88;5.47;;;4.60;99.90;;;;;;5017985;28;20213;-89
2023/03/03 10:19:33;;;;;;;9.05;6.35;;;4.20;99.90;;;;;;5000349;28;20041;-89
2023/03/03 10:22:24;;;;;;;10.55;6.13;;;4.30;99.90;;;;;;5003281;28;20504;-89
2023/03/03 10:24:59;;;;;;;8.98;5.30;;;4.40;99.90;;;;;;5016494;28;20037;-89
2023/03/03 10:27:36;;;;;;;9.52;6.57;;;4.40;99.90;;;;;;5014146;28;20038;-89
2023/03/03 10:30:39;;;;;;;10.70;6.82;;;4.40;99.90;;;;;;4997294;28;20544;-89
2023/03/03 10:33:11;;;;;;;8.90;5.50;;;4.50;99.90;;;;;;5012862;28;20049;-89
2023/03/03 10:35:58;;;;;;;10.98;5.45;;;4.60;99.90;;;;;;4997035;28;20054;-89
2023/03/03 10:38:26;;;;;;;8.75;5.03;;;4.70;99.90;;;;;;5005910;28;20128;-89
2023/03/03 10:41:17;;;;;;;13.35;7.65;;;4.90;99.90;;;;;;5019332;28;20515;-89
2023/03/03 10:44:05;;;;;;;10.05;5.32;;;5.10;99.90;;;;;;5069278;28;20036;-89
2023/03/03 10:47:01;;;;;;;9.27;4.75;;;5.30;99.90;;;;;;5068622;28;20081;-89
2023/03/03 10:50:22;;;;;;;7.95;4.10;;;5.30;99.90;;;;;;5070116;28;20040;-89
2023/03/03 10:52:52;;;;;;;9.70;4.18;;;5.40;99.90;;;;;;5006940;28;20492;-90
2023/03/03 10:55:22;;;;;;;7.18;4.30;;;5.50;99.90;;;;;;4990433;28;20046;-90
2023/03/03 10:58:42;;;;;;;7.93;4.50;;;5.50;99.90;;;;;;4997719;28;20093;-89
2023/03/03 11:01:18;;;;;;;8.93;4.00;;;5.60;99.90;;;;;;5007474;28;20045;-90
2023/03/03 11:03:49;;;;;;;6.30;3.60;;;5.70;99.90;;;;;;5015511;28;20029;-89
2023/03/03 11:06:21;;;;;;;7.70;2.90;;;5.80;99.90;;;;;;5016098;28;20034;-90
2023/03/03 11:09:07;;;;;;;8.80;4.05;;;5.80;99.90;;;;;;4996947;28;20045;-90
2023/03/03 11:12:03;;;;;;;7.88;3.35;;;5.90;99.90;;;;;;4984457;28;20081;-89
2023/03/03 11:14:37;;;;;;;6.40;3.08;;;5.90;99.90;;;;;;4990479;28;20334;-90
2023/03/03 11:17:24;;;;;;;9.15;3.30;;;5.90;99.90;;;;;;4989524;28;20046;-90
2023/03/03 11:20:02;;;;;;;6.70;3.15;;;5.90;99.90;;;;;;5000304;28;20084;-90
2023/03/03 11:22:46;;;;;;;4.93;2.72;;;5.90;99.90;;;;;;4990474;28;20046;-90
2023/03/03 11:25:41;;;;;;;7.47;3.00;;;6.00;99.90;;;;;;5006509;28;20050;-90
2023/03/03 11:28:32;;;;;;;5.95;3.10;;;6.00;99.90;;;;;;5069111;28;20369;-89
2023/03/03 11:31:13;;;;;;;4.80;2.72;;;6.00;99.90;;;;;;5068157;28;20558;-89
2023/03/03 11:33:46;;;;;;;4.90;2.63;;;6.10;99.90;;;;;;5071527;28;20046;-89
2023/03/03 11:36:40;;;;;;;6.93;3.25;;;6.10;99.90;;;;;;5073155;28;20036;-89
2023/03/03 11:39:13;;;;;;;5.60;2.40;;;6.10;99.90;;;;;;5071804;28;20036;-90
2023/03/03 11:41:48;;;;;;;6.82;2.67;;;6.20;99.90;;;;;;5072049;28;20045;-91
2023/03/03 11:44:28;;;;;;;4.88;2.50;;;6.20;99.90;;;;;;5071636;28;20123;-89
2023/03/03 11:46:58;;;;;;;7.10;2.22;;;7.00;99.90;;;;;;5071711;28;20106;-91
2023/03/03 11:49:40;;;;;;;4.70;1.85;;;7.20;99.90;;;;;;5073320;28;20039;-90
2023/03/03 11:52:18;;;;;;;4.43;1.90;;;6.70;99.90;;;;;;5081787;28;20040;-90
2023/03/03 11:55:03;;;;;;;5.55;1.70;;;7.70;99.90;;;;;;5061062;28;20052;-90
2023/03/03 11:57:49;;;;;;;3.08;1.42;;;6.70;99.90;;;;;;5085340;28;20064;-89
2023/03/03 12:00:21;;;;;;;3.38;1.33;;;6.60;99.90;;;;;;5067468;28;20044;-90
2023/03/03 12:03:34;;;;;;;4.45;2.15;;;6.60;99.90;;;;;;5055637;28;20390;-89
2023/03/03 12:06:23;;;;;;;3.67;1.25;;;6.60;99.90;;;;;;5049739;28;20056;-90
2023/03/03 12:09:27;;;;;;;4.57;1.40;;;6.60;99.90;;;;;;5070341;28;20040;-89
2023/03/03 12:12:07;;;;;;;5.22;1.58;;;6.60;99.90;;;;;;5079316;28;20061;-90
2023/03/03 12:14:38;;;;;;;3.03;1.20;;;6.60;99.90;;;;;;5072615;28;20624;-90
2023/03/03 12:17:41;;;;;;;4.68;1.88;;;6.50;99.90;;;;;;5073724;28;20045;-90
2023/03/03 12:20:24;;;;;;;5.13;1.27;;;6.50;99.90;;;;;;5084819;28;21009;-90
2023/03/03 12:23:09;;;;;;;3.45;1.13;;;6.50;99.90;;;;;;5073023;28;20395;-90
2023/03/03 12:25:48;;;;;;;5.95;1.08;;;6.60;99.90;;;;;;5073446;28;20116;-89
2023/03/03 12:28:22;;;;;;;4.25;0.95;;;6.60;99.90;;;;;;5073402;28;20040;-89
2023/03/03 12:31:16;;;;;;;2.83;1.08;;;6.60;99.90;;;;;;5073555;28;20074;-90
2023/03/03 12:33:59;;;;;;;2.00;1.02;;;6.60;99.90;;;;;;5073012;28;20182;-90
2023/03/03 12:36:33;;;;;;;7.38;1.13;;;6.70;99.90;;;;;;5072899;28;20040;-89
2023/03/03 12:39:07;;;;;;;5.45;0.85;;;7.00;99.90;;;;;;5071325;28;20036;-90
2023/03/03 12:41:40;;;;;;;4.30;1.05;;;7.30;99.90;;;;;;5071896;28;20067;-90
2023/03/03 12:44:21;;;;;;;2.15;0.68;;;8.10;99.90;;;;;;5072494;28;20052;-90
2023/03/03 12:47:04;;;;;;;3.55;0.90;;;7.40;99.90;;;;;;5071439;28;20044;-90
2023/03/03 12:50:08;;;;;;;4.95;1.10;;;7.30;99.90;;;;;;5072004;28;20055;-89
2023/03/03 12:53:03;;;;;;;4.07;0.80;;;7.30;99.90;;;;;;5072315;28;20041;-90
2023/03/03 12:55:47;;;;;;;6.68;0.90;;;7.40;99.90;;;;;;5070709;28;20032;-90
2023/03/03 12:58:48;;;;;;;3.63;1.17;;;7.40;99.90;;;;;;5082883;28;20052;-90
2023/03/03 13:01:38;;;;;;;3.00;1.00;;;7.50;99.90;;;;;;5083376;28;20043;-90
2023/03/03 13:04:22;;;;;;;3.65;0.80;;;7.50;99.90;;;;;;5071977;28;20032;-90
2023/03/03 13:07:12;;;;;;;3.72;0.80;;;7.50;99.90;;;;;;5070361;28;20122;-89
2023/03/03 13:10:07;;;;;;;5.72;1.40;;;7.50;99.90;;;;;;5071206;28;20048;-90
2023/03/03 13:12:51;;;;;;;5.40;1.00;;;7.50;99.90;;;;;;5071477;28;20045;-90